Time;durP1;ratioP1;P1;durP2;ratioP2;P2;SDS_P1;SDS_P2;PMS_P1;PMS_P2;Temp;Humidity;BMP_temperature;BMP_pressure;BME280_temperature;BME280_humidity;BME280_pressure;Samples;Min_cycle;Max_cycle;Signal;HPM_P1;HPM_P2
2023/07/04 00:01:37;;;;;;;10.40;2.28;;;;;;;13.68;100.00;100879.72;5008604;28;20073;-58
2023/07/04 00:04:11;;;;;;;6.20;1.67;;;;;;;13.73;100.00;100882.03;5008201;28;20053;-60
2023/07/04 00:06:41;;;;;;;9.85;2.38;;;;;;;13.72;100.00;100888.28;5009430;28;20507;-58
2023/07/04 00:09:09;;;;;;;10.15;1.83;;;;;;;13.65;100.00;100882.63;5007972;28;20112;-58
2023/07/04 00:11:37;;;;;;;9.57;2.13;;;;;;;13.66;100.00;100884.31;5007964;28;20045;-57
2023/07/04 00:14:05;;;;;;;8.68;2.22;;;;;;;13.77;100.00;100870.25;5008546;28;20501;-58
2023/07/04 00:16:33;;;;;;;11.02;2.30;;;;;;;13.81;100.00;100858.50;5008356;28;20085;-57
2023/07/04 00:19:03;;;;;;;9.45;2.20;;;;;;;13.78;100.00;100871.91;5008132;28;20089;-58
2023/07/04 00:21:32;;;;;;;7.05;2.28;;;;;;;13.78;100.00;100881.66;5009000;28;20121;-57
2023/07/04 00:24:02;;;;;;;10.98;2.95;;;;;;;13.82;100.00;100880.47;5008049;28;20041;-58
2023/07/04 00:26:30;;;;;;;9.68;2.25;;;;;;;13.67;100.00;100875.44;5008674;28;20065;-58
2023/07/04 00:28:59;;;;;;;9.45;2.38;;;;;;;13.77;100.00;100877.34;5006901;28;20104;-58
2023/07/04 00:31:28;;;;;;;9.15;2.20;;;;;;;13.73;100.00;100883.81;5006416;28;20068;-58
2023/07/04 00:33:57;;;;;;;6.72;1.77;;;;;;;13.74;100.00;100890.78;5007878;28;20111;-58
2023/07/04 00:36:29;;;;;;;6.65;2.20;;;;;;;13.76;100.00;100876.50;5008646;28;20046;-57
2023/07/04 00:39:02;;;;;;;7.88;1.83;;;;;;;13.69;100.00;100870.84;5007989;28;20053;-58
2023/07/04 00:41:30;;;;;;;7.50;2.25;;;;;;;13.61;100.00;100883.81;5008419;28;20044;-57
2023/07/04 00:44:07;;;;;;;5.35;1.88;;;;;;;13.65;100.00;100887.91;5006725;28;20535;-58
2023/07/04 00:46:39;;;;;;;8.32;1.80;;;;;;;13.65;100.00;100887.91;5007789;28;20038;-57
2023/07/04 00:49:22;;;;;;;8.55;1.80;;;;;;;13.65;100.00;100887.06;5006458;28;20050;-58
2023/07/04 00:52:02;;;;;;;9.27;2.25;;;;;;;13.64;100.00;100890.66;5009147;28;20033;-58
2023/07/04 00:54:36;;;;;;;7.85;1.95;;;;;;;13.61;100.00;100880.34;5007670;28;20049;-57
2023/07/04 00:57:06;;;;;;;4.97;1.73;;;;;;;13.72;100.00;100884.81;5011538;28;20049;-57
2023/07/04 00:59:43;;;;;;;7.80;1.80;;;;;;;13.62;100.00;100877.59;5010969;28;20053;-58
2023/07/04 01:02:13;;;;;;;10.93;2.10;;;;;;;13.50;100.00;100887.28;5006428;28;20148;-58
2023/07/04 01:04:43;;;;;;;6.57;1.83;;;;;;;13.57;100.00;100890.31;5008629;28;20050;-58
2023/07/04 01:07:25;;;;;;;5.80;1.52;;;;;;;13.58;100.00;100892.00;5012265;28;20045;-58
2023/07/04 01:09:59;;;;;;;10.93;2.45;;;;;;;13.59;100.00;100892.81;5012319;28;20053;-58
2023/07/04 01:12:29;;;;;;;12.95;2.50;;;;;;;13.60;100.00;100892.69;5012563;28;20124;-57
2023/07/04 01:14:59;;;;;;;10.32;2.55;;;;;;;13.56;100.00;100904.47;5011333;28;20060;-58
2023/07/04 01:17:28;;;;;;;11.82;2.65;;;;;;;13.55;100.00;100904.59;5010824;28;20042;-57
2023/07/04 01:19:57;;;;;;;10.20;2.20;;;;;;;13.55;100.00;100905.41;5014120;28;20053;-54
2023/07/04 01:22:33;;;;;;;9.57;2.20;;;;;;;13.45;100.00;100896.53;5011686;28;20054;-52
2023/07/04 01:25:12;;;;;;;8.70;2.72;;;;;;;13.34;100.00;100900.78;5012000;28;20563;-55
2023/07/04 01:27:43;;;;;;;7.30;2.20;;;;;;;13.28;100.00;100900.41;5012000;28;20080;-58
2023/07/04 01:30:12;;;;;;;14.20;3.25;;;;;;;13.41;100.00;100906.47;5011067;28;20073;-57
2023/07/04 01:32:43;;;;;;;9.30;2.42;;;;;;;13.42;100.00;100913.44;5020578;28;20091;-57
2023/07/04 01:35:13;;;;;;;9.45;2.75;;;;;;;13.40;100.00;100911.88;5020016;28;20037;-57
2023/07/04 01:37:44;;;;;;;12.10;2.95;;;;;;;13.46;100.00;100914.06;5015893;28;20076;-57
2023/07/04 01:40:12;;;;;;;11.27;2.67;;;;;;;13.44;100.00;100910.69;5027905;28;20056;-57
2023/07/04 01:42:46;;;;;;;8.60;2.35;;;;;;;13.57;100.00;100916.72;5026359;28;20061;-64
2023/07/04 01:45:14;;;;;;;9.45;2.78;;;;;;;13.59;100.00;100924.53;5015166;28;20048;-57
2023/07/04 01:47:42;;;;;;;11.50;3.05;;;;;;;13.55;100.00;100910.69;5011479;28;20038;-57
2023/07/04 01:50:13;;;;;;;12.88;2.83;;;;;;;13.65;100.00;100922.25;5010855;28;20034;-64
2023/07/04 01:52:42;;;;;;;11.73;3.15;;;;;;;13.69;100.00;100915.78;5024621;28;20101;-64
2023/07/04 01:55:13;;;;;;;10.18;3.40;;;;;;;13.59;100.00;100914.78;5021761;28;20037;-65
2023/07/04 01:57:43;;;;;;;10.82;3.13;;;;;;;13.59;100.00;100921.88;5019886;28;20543;-57
2023/07/04 02:00:13;;;;;;;11.63;3.38;;;;;;;13.60;100.00;100913.00;5022775;28;20580;-58
2023/07/04 02:02:43;;;;;;;12.07;3.08;;;;;;;13.68;100.00;100900.88;5013677;28;20056;-58
2023/07/04 02:05:11;;;;;;;11.35;2.97;;;;;;;13.68;100.00;100897.41;5023718;28;20068;-57
2023/07/04 02:07:39;;;;;;;8.85;3.05;;;;;;;13.68;100.00;100890.31;5010698;28;20389;-57
2023/07/04 02:10:08;;;;;;;10.35;3.42;;;;;;;13.71;100.00;100894.50;5014262;28;20052;-58
2023/07/04 02:12:39;;;;;;;12.10;3.15;;;;;;;13.72;100.00;100898.84;5009610;28;20100;-58
2023/07/04 02:15:11;;;;;;;10.57;3.20;;;;;;;13.72;100.00;100898.00;5010317;28;20531;-58
2023/07/04 02:17:40;;;;;;;14.30;3.78;;;;;;;13.78;100.00;100897.53;5016426;28;20044;-57
2023/07/04 02:20:09;;;;;;;13.40;3.42;;;;;;;13.87;100.00;100896.81;5018253;28;20049;-58
2023/07/04 02:22:41;;;;;;;12.35;3.05;;;;;;;13.82;100.00;100904.25;5010783;28;20116;-58
2023/07/04 02:25:10;;;;;;;13.02;2.80;;;;;;;13.82;100.00;100898.97;5012976;28;20041;-57
2023/07/04 02:27:41;;;;;;;10.32;3.08;;;;;;;13.84;100.00;100891.78;5014952;28;20046;-58
2023/07/04 02:30:12;;;;;;;14.57;3.35;;;;;;;13.85;100.00;100893.44;5011092;28;20057;-58
2023/07/04 02:32:40;;;;;;;11.77;2.90;;;;;;;13.88;100.00;100887.06;5013549;28;20038;-58
2023/07/04 02:35:09;;;;;;;11.60;3.00;;;;;;;13.84;100.00;100886.50;5018559;28;20457;-66
2023/07/04 02:37:37;;;;;;;8.85;3.28;;;;;;;13.75;100.00;100889.84;5021443;28;20492;-67
2023/07/04 02:40:06;;;;;;;11.48;3.20;;;;;;;13.77;100.00;100895.84;5021062;28;20397;-66
2023/07/04 02:42:35;;;;;;;10.07;3.10;;;;;;;13.90;100.00;100895.72;5011626;28;20054;-65
2023/07/04 02:45:03;;;;;;;13.57;3.25;;;;;;;13.87;100.00;100886.25;5010329;28;20104;-65
2023/07/04 02:47:33;;;;;;;12.05;3.42;;;;;;;13.85;100.00;100883.72;5009837;28;20535;-65
2023/07/04 02:50:01;;;;;;;10.05;2.90;;;;;;;13.93;100.00;100885.75;5011561;28;20464;-65
2023/07/04 02:52:31;;;;;;;8.20;3.25;;;;;;;13.80;100.00;100882.41;5013972;28;20052;-66
2023/07/04 02:54:59;;;;;;;11.02;3.03;;;;;;;13.73;100.00;100894.38;5013977;28;20497;-66
2023/07/04 02:57:27;;;;;;;12.40;3.08;;;;;;;13.74;100.00;100888.97;5029013;28;20052;-67
2023/07/04 02:59:56;;;;;;;9.75;3.20;;;;;;;13.67;100.00;100883.34;5013792;28;20045;-66
2023/07/04 03:02:24;;;;;;;11.15;2.97;;;;;;;13.74;100.00;100888.16;5012506;28;20057;-66
2023/07/04 03:04:54;;;;;;;12.45;3.22;;;;;;;13.67;100.00;100880.72;5010391;28;20445;-66
2023/07/04 03:07:22;;;;;;;10.70;2.80;;;;;;;13.62;100.00;100884.66;5012225;28;20046;-66
2023/07/04 03:09:50;;;;;;;13.10;3.03;;;;;;;13.61;100.00;100889.09;5013461;28;20757;-65
2023/07/04 03:12:19;;;;;;;9.88;2.90;;;;;;;13.62;100.00;100896.09;5012028;28;20045;-65
2023/07/04 03:14:48;;;;;;;8.35;2.65;;;;;;;13.61;100.00;100899.66;5014397;28;20053;-66
2023/07/04 03:17:22;;;;;;;10.68;3.03;;;;;;;13.56;100.00;100912.41;5008458;28;20034;-65
2023/07/04 03:19:50;;;;;;;7.50;2.35;;;;;;;13.53;100.00;100908.19;5027331;28;20057;-65
2023/07/04 03:22:20;;;;;;;8.88;3.22;;;;;;;13.53;100.00;100896.78;5021784;28;20416;-65
2023/07/04 03:24:48;;;;;;;8.95;2.95;;;;;;;13.43;100.00;100904.56;5014382;28;20052;-65
2023/07/04 03:27:16;;;;;;;11.20;3.35;;;;;;;13.43;100.00;100893.16;5016635;28;20061;-65
2023/07/04 03:29:44;;;;;;;9.55;2.80;;;;;;;13.34;100.00;100895.50;5015097;28;20061;-66
2023/07/04 03:32:12;;;;;;;9.18;2.92;;;;;;;13.34;100.00;100892.03;5018602;28;20423;-65
2023/07/04 03:34:40;;;;;;;12.20;3.35;;;;;;;13.39;100.00;100899.63;5012255;28;20128;-66
2023/07/04 03:37:09;;;;;;;8.75;2.95;;;;;;;13.40;100.00;100899.50;5009269;28;20033;-64
2023/07/04 03:39:38;;;;;;;11.48;3.60;;;;;;;13.34;100.00;100899.97;5022240;28;20512;-65
2023/07/04 03:42:07;;;;;;;6.78;2.60;;;;;;;13.32;100.00;100907.13;5010381;28;20069;-64
2023/07/04 03:44:35;;;;;;;7.82;3.22;;;;;;;13.30;100.00;100904.63;5025175;28;20045;-65
2023/07/04 03:47:04;;;;;;;9.05;2.67;;;;;;;13.26;100.00;100908.44;5009900;28;20049;-64
2023/07/04 03:49:32;;;;;;;10.80;3.20;;;;;;;13.34;100.00;100910.53;5012074;28;20061;-66
2023/07/04 03:52:00;;;;;;;10.75;3.08;;;;;;;13.31;100.00;100914.22;5020887;28;20049;-66
2023/07/04 03:54:28;;;;;;;9.27;2.63;;;;;;;13.28;100.00;100913.59;5016819;28;20042;-57
2023/07/04 03:56:58;;;;;;;12.90;3.30;;;;;;;13.35;100.00;100917.50;5009182;28;20054;-64
2023/07/04 03:59:28;;;;;;;8.98;3.33;;;;;;;13.22;100.00;100909.63;5008477;28;20045;-65
2023/07/04 04:01:57;;;;;;;9.90;2.70;;;;;;;13.22;100.00;100912.28;5008509;28;20049;-65
2023/07/04 04:04:25;;;;;;;9.60;2.70;;;;;;;13.25;100.00;100911.22;5008371;28;20045;-65
2023/07/04 04:06:56;;;;;;;8.35;2.50;;;;;;;13.33;100.00;100912.34;5009104;28;20069;-65
2023/07/04 04:09:24;;;;;;;7.32;3.00;;;;;;;13.29;100.00;100908.25;5009899;28;20042;-66
2023/07/04 04:11:52;;;;;;;8.90;2.95;;;;;;;13.23;100.00;100911.31;5012743;28;20030;-66
2023/07/04 04:14:22;;;;;;;12.10;2.97;;;;;;;13.29;100.00;100920.59;5009406;28;20046;-66
2023/07/04 04:16:50;;;;;;;10.23;3.03;;;;;;;13.34;100.00;100919.28;5008754;28;20509;-66
2023/07/04 04:19:18;;;;;;;11.60;3.13;;;;;;;13.29;100.00;100918.81;5006632;28;20569;-66
2023/07/04 04:21:46;;;;;;;10.20;3.67;;;;;;;13.26;100.00;100919.00;5009057;28;20064;-64
2023/07/04 04:24:15;;;;;;;8.48;2.65;;;;;;;13.32;100.00;100918.56;5007790;28;20504;-66
2023/07/04 04:26:43;;;;;;;10.30;3.33;;;;;;;13.32;100.00;100923.84;5008924;28;20512;-65
2023/07/04 04:29:11;;;;;;;10.80;3.20;;;;;;;13.33;100.00;100922.03;5011339;28;20042;-65
2023/07/04 04:31:40;;;;;;;12.23;3.50;;;;;;;13.30;100.00;100917.81;5012323;28;20042;-66
2023/07/04 04:34:09;;;;;;;11.98;3.53;;;;;;;13.33;100.00;100922.91;5010863;28;20046;-65
2023/07/04 04:36:37;;;;;;;8.27;3.20;;;;;;;13.42;100.00;100923.19;5012086;28;20381;-66
2023/07/04 04:39:06;;;;;;;10.73;3.67;;;;;;;13.47;100.00;100936.88;5010128;28;20037;-65
2023/07/04 04:41:36;;;;;;;9.40;4.32;;;;;;;13.45;100.00;100930.88;5008901;28;20398;-66
2023/07/04 04:44:05;;;;;;;14.60;4.30;;;;;;;13.46;100.00;100929.91;5011163;28;20124;-65
2023/07/04 04:46:34;;;;;;;11.25;3.70;;;;;;;13.41;100.00;100937.34;5008320;28;20075;-65
2023/07/04 04:49:08;;;;;;;15.85;4.80;;;;;;;13.41;100.00;100943.47;5007819;28;20536;-65
2023/07/04 04:51:36;;;;;;;12.02;4.80;;;;;;;13.56;100.00;100949.38;5008636;28;20054;-65
2023/07/04 04:54:04;;;;;;;15.68;5.05;;;;;;;13.54;100.00;100943.38;5010362;28;20461;-65
2023/07/04 04:56:33;;;;;;;13.63;4.85;;;;;;;13.60;100.00;100945.53;5011911;28;20046;-65
2023/07/04 04:59:01;;;;;;;14.52;5.47;;;;;;;13.64;100.00;100948.81;5011223;28;20604;-65
2023/07/04 05:01:30;;;;;;;16.92;6.20;;;;;;;13.63;100.00;100942.69;5007837;28;20512;-66
2023/07/04 05:03:58;;;;;;;18.88;5.88;;;;;;;13.64;100.00;100949.63;5007548;28;20038;-65
2023/07/04 05:06:28;;;;;;;20.48;6.18;;;;;;;13.69;100.00;100944.03;5008824;28;20049;-66
2023/07/04 05:08:56;;;;;;;20.75;7.05;;;;;;;13.73;100.00;100947.25;5011325;28;20042;-58
2023/07/04 05:11:27;;;;;;;21.15;6.60;;;;;;;13.77;100.00;100944.28;5011853;28;20140;-58
2023/07/04 05:13:56;;;;;;;18.98;6.57;;;;;;;13.82;100.00;100951.84;5012097;28;20042;-58
2023/07/04 05:16:24;;;;;;;16.77;7.05;;;;;;;13.85;100.00;100960.38;5010078;28;20748;-58
2023/07/04 05:18:53;;;;;;;17.67;6.80;;;;;;;13.83;100.00;100951.72;5007381;28;20536;-58
2023/07/04 05:21:22;;;;;;;18.70;6.47;;;;;;;13.85;100.00;100948.94;5010585;28;20045;-58
2023/07/04 05:23:53;;;;;;;16.42;6.25;;;;;;;13.93;100.00;100959.75;5008131;28;20124;-58
2023/07/04 05:26:24;;;;;;;22.13;7.40;;;;;;;14.02;100.00;100945.00;5009304;28;20092;-58
2023/07/04 05:28:55;;;;;;;16.90;6.38;;;;;;;14.03;100.00;100949.34;5009643;28;20046;-58
2023/07/04 05:31:25;;;;;;;19.00;6.65;;;;;;;14.03;100.00;100954.63;5007324;28;20077;-58
2023/07/04 05:33:54;;;;;;;21.92;6.13;;;;;;;14.06;100.00;100959.66;5007264;28;20556;-58
2023/07/04 05:36:24;;;;;;;22.52;6.53;;;;;;;14.13;100.00;100966.16;5008250;28;20054;-58
2023/07/04 05:38:55;;;;;;;18.25;7.25;;;;;;;14.21;100.00;100965.56;5008019;28;20125;-58
2023/07/04 05:41:26;;;;;;;18.40;6.43;;;;;;;14.29;100.00;100955.22;5008032;28;20501;-58
2023/07/04 05:43:55;;;;;;;20.10;6.68;;;;;;;14.32;100.00;100956.78;5007478;28;20042;-57
2023/07/04 05:46:24;;;;;;;22.25;6.75;;;;;;;14.33;100.00;100954.00;5007538;28;20049;-58
2023/07/04 05:48:52;;;;;;;19.42;6.97;;;;;;;14.34;100.00;100962.78;5007249;28;20058;-57
2023/07/04 05:51:22;;;;;;;19.10;6.50;;;;;;;14.42;100.00;100949.78;5009006;28;20038;-58
2023/07/04 05:53:52;;;;;;;23.88;7.88;;;;;;;14.52;100.00;100963.97;5011410;28;20120;-57
2023/07/04 05:56:25;;;;;;;19.45;7.00;;;;;;;14.58;100.00;100959.97;5012196;28;20053;-58
2023/07/04 05:58:55;;;;;;;19.08;7.05;;;;;;;14.63;100.00;100968.44;5014981;28;20485;-58
2023/07/04 06:01:29;;;;;;;19.23;7.22;;;;;;;14.66;100.00;100970.81;5014714;28;20042;-57
2023/07/04 06:03:58;;;;;;;22.88;7.68;;;;;;;14.77;100.00;100963.84;5014131;28;20046;-58
2023/07/04 06:06:28;;;;;;;21.60;7.15;;;;;;;14.77;100.00;100971.78;5009726;28;20140;-58
2023/07/04 06:08:58;;;;;;;21.80;7.32;;;;;;;14.78;100.00;100973.44;5010748;28;20456;-58
2023/07/04 06:11:32;;;;;;;16.15;5.78;;;;;;;14.90;100.00;100969.78;5011176;28;20076;-66
2023/07/04 06:14:01;;;;;;;21.27;6.68;;;;;;;15.02;100.00;100966.16;5010792;28;20054;-57
2023/07/04 06:16:30;;;;;;;19.63;7.35;;;;;;;15.16;100.00;100980.06;5010335;28;20851;-57
2023/07/04 06:18:59;;;;;;;18.63;7.00;;;;;;;15.29;100.00;100978.09;5010206;28;20053;-57
2023/07/04 06:21:28;;;;;;;19.73;6.55;;;;;;;15.28;100.00;100976.41;5010030;28;20125;-57
2023/07/04 06:24:10;;;;;;;;;;;;;;;15.37;100.00;100986.22;5010778;28;20054;-57
2023/07/04 06:26:39;;;;;;;19.58;6.50;;;;;;;15.30;100.00;100987.72;5010962;28;19945;-65
2023/07/04 06:29:08;;;;;;;19.40;6.63;;;;;;;15.41;100.00;100993.94;4990816;28;20137;-66
2023/07/04 06:31:41;;;;;;;19.70;6.32;;;;;;;15.53;100.00;100999.06;4990918;28;20045;-67
2023/07/04 06:34:11;;;;;;;17.17;6.90;;;;;;;15.67;100.00;100999.72;4990038;28;20559;-66
2023/07/04 06:36:39;;;;;;;19.40;6.32;;;;;;;15.70;100.00;100999.44;4991474;28;20410;-68
2023/07/04 06:39:07;;;;;;;20.35;6.25;;;;;;;15.83;100.00;100997.47;4990331;28;20053;-67
2023/07/04 06:41:35;;;;;;;20.83;6.60;;;;;;;15.97;100.00;101001.59;4991182;28;20042;-66
2023/07/04 06:44:06;;;;;;;21.63;7.30;;;;;;;16.14;100.00;101007.25;4990522;28;20065;-67
2023/07/04 06:46:34;;;;;;;25.17;7.03;;;;;;;16.25;100.00;101012.47;4990914;28;20542;-67
2023/07/04 06:49:06;;;;;;;18.02;6.22;;;;;;;16.27;100.00;101015.84;5006188;28;20737;-59
2023/07/04 06:51:34;;;;;;;20.10;6.47;;;;;;;16.34;100.00;101021.47;5010987;28;20053;-58
2023/07/04 06:54:03;;;;;;;23.17;6.30;;;;;;;16.44;100.00;101013.53;5009758;28;20049;-58
2023/07/04 06:56:31;;;;;;;22.60;6.57;;;;;;;16.58;100.00;101015.81;5010165;28;20052;-57
2023/07/04 06:59:00;;;;;;;16.17;6.13;;;;;;;16.66;100.00;101009.81;5008173;28;20060;-57
2023/07/04 07:01:30;;;;;;;21.75;5.93;;;;;;;16.84;100.00;101008.19;5009358;28;20232;-57
2023/07/04 07:04:02;;;;;;;18.40;5.35;;;;;;;16.87;100.00;101015.06;5007966;28;20083;-57
2023/07/04 07:06:31;;;;;;;22.50;5.65;;;;;;;17.08;100.00;101011.47;5010728;28;20046;-57
2023/07/04 07:09:00;;;;;;;20.88;6.05;;;;;;;17.08;100.00;101022.09;5009963;28;20409;-58
2023/07/04 07:11:29;;;;;;;19.20;5.68;;;;;;;16.94;100.00;101021.53;5010022;28;20457;-67
2023/07/04 07:13:57;;;;;;;22.00;6.28;;;;;;;17.07;100.00;101023.94;5009940;28;20503;-57
2023/07/04 07:16:26;;;;;;;17.90;5.70;;;;;;;17.16;100.00;101024.91;5011615;28;20042;-59
2023/07/04 07:18:56;;;;;;;15.45;4.63;;;;;;;17.30;100.00;101031.63;5013044;28;20058;-57
2023/07/04 07:21:26;;;;;;;20.58;5.82;;;;;;;17.38;100.00;101035.28;5010211;28;20046;-57
2023/07/04 07:23:55;;;;;;;18.17;4.93;;;;;;;17.42;100.00;101040.31;5009439;28;20053;-58
2023/07/04 07:26:27;;;;;;;17.08;5.47;;;;;;;17.50;100.00;101027.16;5013631;28;20049;-58
2023/07/04 07:28:56;;;;;;;18.33;6.10;;;;;;;17.62;100.00;101026.03;5010054;28;20046;-57
2023/07/04 07:31:27;;;;;;;18.65;5.43;;;;;;;17.77;100.00;101018.44;5009320;28;20124;-58
2023/07/04 07:34:03;;;;;;;16.05;4.53;;;;;;;17.88;100.00;101017.44;5010531;28;20374;-57
2023/07/04 07:36:37;;;;;;;18.95;5.03;;;;;;;17.94;100.00;101021.38;5018268;28;20108;-58
2023/07/04 07:39:06;;;;;;;;;;;;;;;17.98;100.00;101025.44;5015418;28;20053;-57
2023/07/04 07:41:38;;;;;;;15.05;4.75;;;;;;;17.96;100.00;101016.78;5018969;28;19925;-57
2023/07/04 07:44:08;;;;;;;15.23;4.93;;;;;;;17.90;100.00;101010.16;5013238;28;20053;-57
2023/07/04 07:46:37;;;;;;;15.73;4.88;;;;;;;18.05;100.00;101022.06;5027086;28;20084;-56
2023/07/04 07:49:07;;;;;;;15.95;4.00;;;;;;;18.28;100.00;101026.19;5024689;28;20069;-58
2023/07/04 07:51:37;;;;;;;17.90;4.38;;;;;;;18.52;100.00;101028.31;5009125;28;20042;-57
2023/07/04 07:54:07;;;;;;;14.13;3.50;;;;;;;18.60;100.00;101039.06;5020599;28;20071;-58
2023/07/04 07:56:40;;;;;;;15.82;3.80;;;;;;;18.68;100.00;101028.53;5009489;28;20045;-58
2023/07/04 07:59:09;;;;;;;13.23;4.00;;;;;;;18.62;100.00;101038.94;5009095;28;20131;-59
2023/07/04 08:01:38;;;;;;;13.23;3.85;;;;;;;18.65;100.00;101034.16;5008836;28;20048;-58
2023/07/04 08:04:10;;;;;;;12.45;3.60;;;;;;;18.56;100.00;101038.53;5008036;28;20053;-59
2023/07/04 08:06:44;;;;;;;18.00;3.50;;;;;;;18.47;100.00;101035.91;5028611;28;20519;-58
2023/07/04 08:09:15;;;;;;;15.65;3.70;;;;;;;18.73;100.00;101036.06;5027853;28;20720;-59
2023/07/04 08:11:45;;;;;;;20.08;3.75;;;;;;;18.73;100.00;101033.38;5007994;28;20068;-58
2023/07/04 08:14:15;;;;;;;16.00;3.88;;;;;;;18.63;100.00;101033.44;5017085;28;20487;-58
2023/07/04 08:16:45;;;;;;;12.40;2.90;;;;;;;18.58;100.00;101041.91;5009555;28;20050;-59
2023/07/04 08:19:17;;;;;;;15.82;3.30;;;;;;;18.86;100.00;101033.06;5015105;28;20516;-59
2023/07/04 08:21:48;;;;;;;13.85;3.72;;;;;;;19.05;100.00;101030.28;5011846;28;20426;-59
2023/07/04 08:24:19;;;;;;;16.90;3.10;;;;;;;19.01;100.00;101036.06;5016570;28;20053;-58
2023/07/04 08:26:48;;;;;;;13.40;3.22;;;;;;;19.01;100.00;101039.56;5015386;28;20057;-59
2023/07/04 08:29:19;;;;;;;14.80;3.33;;;;;;;18.89;100.00;101043.44;5007755;28;20052;-59
2023/07/04 08:31:47;;;;;;;15.07;3.10;;;;;;;18.93;100.00;101044.81;5016958;28;20546;-58
2023/07/04 08:34:16;;;;;;;12.05;3.03;;;;;;;19.05;100.00;101045.44;5021993;28;20052;-58
2023/07/04 08:36:44;;;;;;;10.70;3.05;;;;;;;19.07;100.00;101048.78;5018129;28;20099;-67
2023/07/04 08:39:13;;;;;;;13.32;3.20;;;;;;;19.08;100.00;101042.47;5027549;28;20050;-58
2023/07/04 08:41:45;;;;;;;8.60;2.35;;;;;;;19.06;100.00;101039.97;5035669;28;20034;-69
2023/07/04 08:44:18;;;;;;;12.55;2.92;;;;;;;19.06;100.00;101047.97;5011104;28;20108;-67
2023/07/04 08:46:48;;;;;;;11.95;3.28;;;;;;;18.87;100.00;101048.03;5020387;28;20042;-66
2023/07/04 08:49:34;;;;;;;10.70;2.90;;;;;;;18.91;100.00;101062.78;5008584;28;20077;-67
2023/07/04 08:52:09;;;;;;;13.70;3.35;;;;;;;19.01;100.00;101065.38;5012792;28;20042;-67
2023/07/04 08:54:38;;;;;;;13.20;3.58;;;;;;;19.15;100.00;101061.38;5009858;28;20400;-66
2023/07/04 08:57:24;;;;;;;11.50;3.20;;;;;;;19.25;100.00;101062.97;5010661;28;20544;-68
2023/07/04 08:59:57;;;;;;;13.25;3.35;;;;;;;19.30;100.00;101059.00;5023404;28;20049;-59
2023/07/04 09:02:47;;;;;;;11.15;3.20;;;;;;;19.21;100.00;101058.09;5021876;28;20531;-68
2023/07/04 09:05:26;;;;;;;11.55;2.88;;;;;;;19.43;100.00;101065.63;5028631;28;20481;-68
2023/07/04 09:08:04;;;;;;;16.25;2.90;;;;;;;19.33;100.00;101078.19;5028900;28;20515;-69
2023/07/04 09:10:37;;;;;;;12.35;2.88;;;;;;;19.47;100.00;101068.00;5028614;28;20056;-67
2023/07/04 09:13:10;;;;;;;12.85;3.08;;;;;;;19.53;100.00;101067.41;5028385;28;20049;-68
2023/07/04 09:15:41;;;;;;;12.15;2.95;;;;;;;19.71;100.00;101073.53;5027693;28;20144;-68
2023/07/04 09:18:21;;;;;;;13.15;2.88;;;;;;;19.87;100.00;101077.38;5027193;28;20057;-64
2023/07/04 09:20:57;;;;;;;10.02;2.40;;;;;;;20.14;100.00;101086.22;5024959;28;20046;-64
2023/07/04 09:23:26;;;;;;;10.80;2.30;;;;;;;20.19;100.00;101086.59;5020535;28;20045;-65
2023/07/04 09:25:57;;;;;;;11.48;2.70;;;;;;;20.43;100.00;101078.72;5011113;28;20042;-67
2023/07/04 09:28:26;;;;;;;11.55;2.50;;;;;;;20.65;100.00;101089.84;5010793;28;20053;-66
2023/07/04 09:30:59;;;;;;;9.50;2.25;;;;;;;20.74;100.00;101091.59;5012207;28;20046;-65
2023/07/04 09:33:29;;;;;;;10.45;2.42;;;;;;;21.04;100.00;101093.88;5012171;28;20526;-65
2023/07/04 09:36:00;;;;;;;11.10;2.50;;;;;;;21.26;100.00;101103.13;5012664;28;20473;-65
2023/07/04 09:38:51;;;;;;;10.38;2.33;;;;;;;21.49;100.00;101094.44;5010760;28;20555;-64
2023/07/04 09:41:26;;;;;;;10.05;2.35;;;;;;;21.54;100.00;101097.50;5011976;28;20129;-64
2023/07/04 09:43:56;;;;;;;13.10;2.40;;;;;;;21.51;100.00;101095.94;5014407;28;20459;-65
2023/07/04 09:46:26;;;;;;;11.20;2.40;;;;;;;21.81;100.00;101090.16;5011930;28;20116;-65
2023/07/04 09:48:56;;;;;;;8.88;2.13;;;;;;;21.69;100.00;101086.97;5012172;28;20068;-63
2023/07/04 09:51:30;;;;;;;12.35;2.50;;;;;;;22.21;100.00;101083.06;5013883;28;20080;-64
2023/07/04 09:54:16;;;;;;;9.82;2.38;;;;;;;22.54;100.00;101088.38;5010737;28;20054;-57
2023/07/04 09:56:44;;;;;;;9.77;2.10;;;;;;;22.79;100.00;101087.25;5020382;28;20441;-57
2023/07/04 09:59:18;;;;;;;10.07;2.50;;;;;;;22.67;100.00;101079.78;5024875;28;20115;-57
2023/07/04 10:01:48;;;;;;;7.53;1.98;;;;;;;22.66;100.00;101086.13;5023894;28;20152;-58
2023/07/04 10:04:25;;;;;;;10.20;2.33;;;;;;;22.67;100.00;101085.94;5024436;28;20771;-57
2023/07/04 10:06:57;;;;;;;11.60;2.70;;;;;;;22.55;100.00;101076.63;5012780;28;20092;-57
2023/07/04 10:09:26;;;;;;;8.82;2.40;;;;;;;22.92;100.00;101092.06;5014555;28;20567;-57
2023/07/04 10:12:10;;;;;;;10.73;2.30;;;;;;;22.91;100.00;101084.19;5003019;28;20540;-62
2023/07/04 10:14:46;;;;;;;10.40;2.33;;;;;;;23.02;97.75;101080.28;5013345;28;20050;-61
2023/07/04 10:17:20;;;;;;;8.75;1.70;;;;;;;23.12;99.73;101087.13;5010977;28;20393;-61
2023/07/04 10:19:50;;;;;;;8.88;2.17;;;;;;;23.00;96.77;101085.81;5015448;28;20046;-62
2023/07/04 10:22:32;;;;;;;9.30;2.58;;;;;;;23.41;97.08;101082.03;5014286;28;20401;-58
2023/07/04 10:25:02;;;;;;;8.30;2.17;;;;;;;23.57;93.08;101078.41;5012375;28;20121;-58
2023/07/04 10:27:34;;;;;;;9.82;2.15;;;;;;;23.64;89.85;101087.41;5013434;28;20488;-58
2023/07/04 10:30:07;;;;;;;9.32;2.25;;;;;;;23.49;88.50;101083.84;5010200;28;20054;-57
2023/07/04 10:32:40;;;;;;;10.93;2.40;;;;;;;23.40;92.89;101099.19;5009905;28;20042;-57
2023/07/04 10:35:12;;;;;;;10.32;2.25;;;;;;;23.12;89.19;101097.84;5009844;28;20449;-57
2023/07/04 10:37:46;;;;;;;7.75;2.15;;;;;;;23.36;93.09;101097.88;5009827;28;20428;-58
2023/07/04 10:40:16;;;;;;;14.23;2.80;;;;;;;23.15;88.48;101096.66;5010195;28;20133;-58
2023/07/04 10:42:51;;;;;;;10.38;2.40;;;;;;;23.14;86.24;101100.34;5010036;28;20137;-58
2023/07/04 10:45:23;;;;;;;11.18;2.47;;;;;;;23.27;78.96;101100.63;5009764;28;20129;-58
2023/07/04 10:47:54;;;;;;;9.50;2.08;;;;;;;23.71;83.91;101096.44;5009270;28;20042;-58
2023/07/04 10:50:27;;;;;;;7.67;1.83;;;;;;;24.17;79.70;101100.06;5010551;28;20061;-58
2023/07/04 10:52:56;;;;;;;;;;;;;;;24.31;79.89;101096.56;5009737;28;20451;-57
2023/07/04 10:55:34;;;;;;;10.63;2.60;;;;;;;24.51;72.20;101093.31;5010494;28;19932;-57
2023/07/04 10:58:09;;;;;;;8.27;2.00;;;;;;;24.78;73.93;101100.72;5029951;28;20050;-57
2023/07/04 11:00:41;;;;;;;6.80;1.77;;;;;;;24.69;67.31;101101.03;5016892;28;20059;-57
2023/07/04 11:03:16;;;;;;;7.00;2.00;;;;;;;24.51;66.85;101104.06;5021572;28;20041;-58
2023/07/04 11:05:49;;;;;;;8.02;2.40;;;;;;;24.86;66.99;101107.88;5025388;28;20056;-59
2023/07/04 11:08:21;;;;;;;7.70;2.03;;;;;;;25.17;66.69;101105.94;5014748;28;20120;-58
2023/07/04 11:10:53;;;;;;;8.25;2.22;;;;;;;25.25;67.72;101117.44;5028764;28;20049;-59
2023/07/04 11:13:24;;;;;;;8.23;2.42;;;;;;;25.07;65.89;101111.63;5015472;28;20049;-61
2023/07/04 11:15:57;;;;;;;7.80;2.40;;;;;;;25.46;71.00;101108.53;5020246;28;20144;-62
2023/07/04 11:18:34;;;;;;;6.63;2.10;;;;;;;25.58;67.14;101102.66;5012715;28;20049;-61
2023/07/04 11:21:11;;;;;;;6.80;2.28;;;;;;;24.81;64.01;101096.84;5027293;28;20125;-63
2023/07/04 11:23:48;;;;;;;9.60;1.98;;;;;;;25.00;63.61;101094.56;5020294;28;20045;-62
2023/07/04 11:26:17;;;;;;;8.55;2.00;;;;;;;24.85;61.11;101094.59;5019126;28;20764;-61
2023/07/04 11:28:48;;;;;;;8.45;2.00;;;;;;;24.47;60.15;101084.78;5014792;28;20045;-62
2023/07/04 11:31:24;;;;;;;8.48;1.98;;;;;;;24.83;62.25;101099.31;5027673;28;20530;-62